sensor_id;sensor_type;location;lat;lon;timestamp;pressure;altitude;pressure_sealevel;temperature;humidity
59443;BME280;45247;47.466;19.004;2023-06-14T00:00:34;99627.19;;;12.70;100.00
59443;BME280;45247;47.466;19.004;2023-06-14T00:03:02;99631.63;;;12.69;100.00
59443;BME280;45247;47.466;19.004;2023-06-14T00:05:31;99633.66;;;12.66;100.00
59443;BME280;45247;47.466;19.004;2023-06-14T00:08:06;99635.03;;;12.59;100.00
59443;BME280;45247;47.466;19.004;2023-06-14T00:10:34;99635.03;;;12.59;100.00
59443;BME280;45247;47.466;19.004;2023-06-14T00:13:02;99633.69;;;12.53;100.00
59443;BME280;45247;47.466;19.004;2023-06-14T00:15:31;99632.13;;;12.50;100.00
59443;BME280;45247;47.466;19.004;2023-06-14T00:17:59;99631.50;;;12.47;100.00
59443;BME280;45247;47.466;19.004;2023-06-14T00:20:28;99639.53;;;12.45;100.00
59443;BME280;45247;47.466;19.004;2023-06-14T00:22:57;99642.72;;;12.50;100.00
59443;BME280;45247;47.466;19.004;2023-06-14T00:25:27;99639.31;;;12.48;100.00
59443;BME280;45247;47.466;19.004;2023-06-14T00:27:56;99646.28;;;12.49;100.00
59443;BME280;45247;47.466;19.004;2023-06-14T00:30:24;99649.06;;;12.48;100.00
59443;BME280;45247;47.466;19.004;2023-06-14T00:32:57;99648.66;;;12.41;100.00
59443;BME280;45247;47.466;19.004;2023-06-14T00:35:25;99648.88;;;12.38;100.00
59443;BME280;45247;47.466;19.004;2023-06-14T00:37:53;99653.34;;;12.38;100.00
59443;BME280;45247;47.466;19.004;2023-06-14T00:40:22;99650.13;;;12.33;100.00
59443;BME280;45247;47.466;19.004;2023-06-14T00:42:51;99654.38;;;12.35;100.00
59443;BME280;45247;47.466;19.004;2023-06-14T00:45:19;99653.88;;;12.30;100.00
59443;BME280;45247;47.466;19.004;2023-06-14T00:47:47;99649.53;;;12.29;100.00
59443;BME280;45247;47.466;19.004;2023-06-14T00:50:15;99655.75;;;12.28;100.00
59443;BME280;45247;47.466;19.004;2023-06-14T00:52:43;99652.59;;;12.23;100.00
59443;BME280;45247;47.466;19.004;2023-06-14T00:55:11;99650.91;;;12.22;100.00
59443;BME280;45247;47.466;19.004;2023-06-14T00:57:39;99652.06;;;12.18;100.00
59443;BME280;45247;47.466;19.004;2023-06-14T01:00:10;99646.78;;;12.18;100.00
59443;BME280;45247;47.466;19.004;2023-06-14T01:02:39;99647.13;;;12.13;100.00
59443;BME280;45247;47.466;19.004;2023-06-14T01:05:07;99640.03;;;12.14;100.00
59443;BME280;45247;47.466;19.004;2023-06-14T01:07:40;99640.75;;;12.16;100.00
59443;BME280;45247;47.466;19.004;2023-06-14T01:10:12;99650.81;;;12.11;100.00
59443;BME280;45247;47.466;19.004;2023-06-14T01:12:44;99649.13;;;12.10;100.00
59443;BME280;45247;47.466;19.004;2023-06-14T01:15:17;99653.13;;;12.02;100.00
59443;BME280;45247;47.466;19.004;2023-06-14T01:17:45;99651.13;;;12.06;100.00
59443;BME280;45247;47.466;19.004;2023-06-14T01:20:13;99647.75;;;12.04;100.00
59443;BME280;45247;47.466;19.004;2023-06-14T01:22:50;99644.47;;;12.00;100.00
59443;BME280;45247;47.466;19.004;2023-06-14T01:25:18;99641.19;;;11.97;100.00
59443;BME280;45247;47.466;19.004;2023-06-14T01:27:47;99641.50;;;11.92;100.00
59443;BME280;45247;47.466;19.004;2023-06-14T01:30:17;99648.50;;;11.93;100.00
59443;BME280;45247;47.466;19.004;2023-06-14T01:32:45;99647.00;;;11.89;100.00
59443;BME280;45247;47.466;19.004;2023-06-14T01:35:13;99648.28;;;11.84;100.00
59443;BME280;45247;47.466;19.004;2023-06-14T01:37:41;99644.00;;;11.81;100.00
59443;BME280;45247;47.466;19.004;2023-06-14T01:40:11;99649.13;;;11.84;100.00
59443;BME280;45247;47.466;19.004;2023-06-14T01:42:40;99640.44;;;11.82;100.00
59443;BME280;45247;47.466;19.004;2023-06-14T01:45:09;99649.28;;;11.81;100.00
59443;BME280;45247;47.466;19.004;2023-06-14T01:47:37;99647.59;;;11.80;100.00
59443;BME280;45247;47.466;19.004;2023-06-14T01:50:06;99647.59;;;11.80;100.00
59443;BME280;45247;47.466;19.004;2023-06-14T01:52:34;99653.84;;;11.79;100.00
59443;BME280;45247;47.466;19.004;2023-06-14T01:55:02;99649.53;;;11.78;100.00
59443;BME280;45247;47.466;19.004;2023-06-14T01:57:31;99661.78;;;11.79;100.00
59443;BME280;45247;47.466;19.004;2023-06-14T01:59:59;99659.22;;;11.77;100.00
59443;BME280;45247;47.466;19.004;2023-06-14T02:02:27;99662.94;;;11.75;100.00
59443;BME280;45247;47.466;19.004;2023-06-14T02:04:55;99663.25;;;11.70;100.00
59443;BME280;45247;47.466;19.004;2023-06-14T02:07:24;99664.50;;;11.65;100.00
59443;BME280;45247;47.466;19.004;2023-06-14T02:09:52;99660.94;;;11.66;100.00
59443;BME280;45247;47.466;19.004;2023-06-14T02:12:20;99667.91;;;11.67;100.00
59443;BME280;45247;47.466;19.004;2023-06-14T02:14:49;99670.75;;;11.64;100.00
59443;BME280;45247;47.466;19.004;2023-06-14T02:17:17;99670.00;;;11.62;100.00
59443;BME280;45247;47.466;19.004;2023-06-14T02:19:45;99663.03;;;11.61;100.00
59443;BME280;45247;47.466;19.004;2023-06-14T02:22:13;99670.00;;;11.62;100.00
59443;BME280;45247;47.466;19.004;2023-06-14T02:24:42;99667.25;;;11.63;100.00
59443;BME280;45247;47.466;19.004;2023-06-14T02:27:10;99666.63;;;11.60;100.00
59443;BME280;45247;47.466;19.004;2023-06-14T02:29:38;99663.25;;;11.58;100.00
59443;BME280;45247;47.466;19.004;2023-06-14T02:32:08;99667.38;;;11.62;100.00
59443;BME280;45247;47.466;19.004;2023-06-14T02:34:36;99660.47;;;11.59;100.00
59443;BME280;45247;47.466;19.004;2023-06-14T02:37:07;99657.19;;;11.56;100.00
59443;BME280;45247;47.466;19.004;2023-06-14T02:39:35;99655.50;;;11.54;100.00
59443;BME280;45247;47.466;19.004;2023-06-14T02:42:03;99661.00;;;11.51;100.00
59443;BME280;45247;47.466;19.004;2023-06-14T02:44:32;99664.59;;;11.50;100.00
59443;BME280;45247;47.466;19.004;2023-06-14T02:47:00;99664.50;;;11.52;100.00
59443;BME280;45247;47.466;19.004;2023-06-14T02:49:29;99663.63;;;11.51;100.00
59443;BME280;45247;47.466;19.004;2023-06-14T02:51:57;99663.13;;;11.59;100.00
59443;BME280;45247;47.466;19.004;2023-06-14T02:54:26;99664.19;;;11.57;100.00
59443;BME280;45247;47.466;19.004;2023-06-14T02:56:54;99657.84;;;11.59;100.00
59443;BME280;45247;47.466;19.004;2023-06-14T02:59:21;99662.09;;;11.62;100.00
59443;BME280;45247;47.466;19.004;2023-06-14T03:01:51;99664.63;;;11.63;100.00
59443;BME280;45247;47.466;19.004;2023-06-14T03:04:19;99663.88;;;11.61;100.00
59443;BME280;45247;47.466;19.004;2023-06-14T03:06:49;99661.00;;;11.64;100.00
59443;BME280;45247;47.466;19.004;2023-06-14T03:09:17;99657.34;;;11.67;100.00
59443;BME280;45247;47.466;19.004;2023-06-14T03:11:46;99654.56;;;11.68;100.00
59443;BME280;45247;47.466;19.004;2023-06-14T03:14:13;99660.31;;;11.75;100.00
59443;BME280;45247;47.466;19.004;2023-06-14T03:16:43;99660.81;;;11.80;100.00
59443;BME280;45247;47.466;19.004;2023-06-14T03:19:11;99661.38;;;11.85;100.00
59443;BME280;45247;47.466;19.004;2023-06-14T03:21:39;99655.47;;;11.94;100.00
59443;BME280;45247;47.466;19.004;2023-06-14T03:24:12;99663.72;;;12.02;100.00
59443;BME280;45247;47.466;19.004;2023-06-14T03:26:43;99663.06;;;12.12;100.00
59443;BME280;45247;47.466;19.004;2023-06-14T03:29:10;99663.69;;;12.28;100.00
59443;BME280;45247;47.466;19.004;2023-06-14T03:31:41;99657.63;;;12.51;100.00
59443;BME280;45247;47.466;19.004;2023-06-14T03:34:23;99666.75;;;12.84;100.00
59443;BME280;45247;47.466;19.004;2023-06-14T03:36:51;99665.84;;;13.44;100.00
59443;BME280;45247;47.466;19.004;2023-06-14T03:39:20;99669.50;;;14.80;100.00
59443;BME280;45247;47.466;19.004;2023-06-14T03:41:48;99665.50;;;16.33;100.00
59443;BME280;45247;47.466;19.004;2023-06-14T03:44:17;99667.44;;;17.50;100.00
59443;BME280;45247;47.466;19.004;2023-06-14T03:46:45;99668.19;;;18.84;99.59
59443;BME280;45247;47.466;19.004;2023-06-14T03:49:13;99662.53;;;19.68;86.33
59443;BME280;45247;47.466;19.004;2023-06-14T03:51:42;99658.84;;;20.89;78.15
59443;BME280;45247;47.466;19.004;2023-06-14T03:54:11;99654.59;;;21.94;69.67
59443;BME280;45247;47.466;19.004;2023-06-14T03:57:01;99651.38;;;22.63;64.02
59443;BME280;45247;47.466;19.004;2023-06-14T03:59:29;99657.09;;;22.60;62.75
59443;BME280;45247;47.466;19.004;2023-06-14T04:01:57;99650.09;;;23.67;59.06
59443;BME280;45247;47.466;19.004;2023-06-14T04:04:25;99659.22;;;24.48;53.79
59443;BME280;45247;47.466;19.004;2023-06-14T04:06:55;99659.75;;;24.73;52.82
59443;BME280;45247;47.466;19.004;2023-06-14T04:09:24;99663.91;;;24.90;52.31
59443;BME280;45247;47.466;19.004;2023-06-14T04:11:53;99668.72;;;24.95;50.53
59443;BME280;45247;47.466;19.004;2023-06-14T04:14:22;99663.47;;;25.44;49.45
59443;BME280;45247;47.466;19.004;2023-06-14T04:16:50;99671.28;;;25.18;49.39
59443;BME280;45247;47.466;19.004;2023-06-14T04:19:18;99669.97;;;24.92;49.64
59443;BME280;45247;47.466;19.004;2023-06-14T04:21:46;99674.44;;;25.21;49.06
59443;BME280;45247;47.466;19.004;2023-06-14T04:24:14;99674.91;;;25.68;47.91
59443;BME280;45247;47.466;19.004;2023-06-14T04:26:43;99672.59;;;25.86;47.38
59443;BME280;45247;47.466;19.004;2023-06-14T04:29:12;99677.34;;;26.75;45.80
59443;BME280;45247;47.466;19.004;2023-06-14T04:31:44;99672.22;;;27.94;43.37
59443;BME280;45247;47.466;19.004;2023-06-14T04:34:13;99670.09;;;28.23;42.14
59443;BME280;45247;47.466;19.004;2023-06-14T04:36:43;99667.19;;;27.65;42.41
59443;BME280;45247;47.466;19.004;2023-06-14T04:39:15;99668.88;;;27.79;42.34
59443;BME280;45247;47.466;19.004;2023-06-14T04:41:44;99675.50;;;27.43;42.24
59443;BME280;45247;47.466;19.004;2023-06-14T04:44:13;99670.06;;;27.30;42.66
59443;BME280;45247;47.466;19.004;2023-06-14T04:46:45;99677.44;;;28.87;41.18
59443;BME280;45247;47.466;19.004;2023-06-14T04:49:13;99677.69;;;29.24;39.08
59443;BME280;45247;47.466;19.004;2023-06-14T04:51:42;99675.34;;;28.89;39.93
59443;BME280;45247;47.466;19.004;2023-06-14T04:54:11;99675.97;;;28.85;39.82
59443;BME280;45247;47.466;19.004;2023-06-14T04:56:41;99668.19;;;30.22;37.68
59443;BME280;45247;47.466;19.004;2023-06-14T04:59:10;99684.13;;;29.68;38.17
59443;BME280;45247;47.466;19.004;2023-06-14T05:01:39;99689.56;;;29.68;38.28
59443;BME280;45247;47.466;19.004;2023-06-14T05:04:09;99694.00;;;30.56;37.04
59443;BME280;45247;47.466;19.004;2023-06-14T05:06:37;99689.72;;;30.85;37.14
59443;BME280;45247;47.466;19.004;2023-06-14T05:09:05;99678.13;;;30.71;36.33
59443;BME280;45247;47.466;19.004;2023-06-14T05:11:33;99685.53;;;30.82;35.88
59443;BME280;45247;47.466;19.004;2023-06-14T05:14:02;99685.53;;;30.46;36.38
59443;BME280;45247;47.466;19.004;2023-06-14T05:16:32;99679.06;;;31.85;34.31
59443;BME280;45247;47.466;19.004;2023-06-14T05:19:11;99678.97;;;31.92;33.89
59443;BME280;45247;47.466;19.004;2023-06-14T05:21:54;99680.38;;;32.65;33.92
59443;BME280;45247;47.466;19.004;2023-06-14T05:24:36;99683.69;;;31.31;34.82
59443;BME280;45247;47.466;19.004;2023-06-14T05:27:19;99688.34;;;31.24;35.83
59443;BME280;45247;47.466;19.004;2023-06-14T05:30:06;99683.09;;;31.41;34.67
59443;BME280;45247;47.466;19.004;2023-06-14T05:32:58;99683.47;;;31.86;34.28
59443;BME280;45247;47.466;19.004;2023-06-14T05:35:44;99682.13;;;30.07;36.75
59443;BME280;45247;47.466;19.004;2023-06-14T05:38:30;99691.41;;;27.73;40.34
59443;BME280;45247;47.466;19.004;2023-06-14T05:41:20;99692.88;;;28.93;39.75
59443;BME280;45247;47.466;19.004;2023-06-14T05:44:16;99683.00;;;28.54;40.81
59443;BME280;45247;47.466;19.004;2023-06-14T05:47:11;99690.84;;;28.82;39.06
59443;BME280;45247;47.466;19.004;2023-06-14T05:49:41;99691.72;;;28.69;39.91
59443;BME280;45247;47.466;19.004;2023-06-14T05:55:11;99689.78;;;30.78;37.02
59443;BME280;45247;47.466;19.004;2023-06-14T05:57:40;99698.50;;;29.43;37.89
59443;BME280;45247;47.466;19.004;2023-06-14T06:00:08;99695.41;;;28.88;38.22
59443;BME280;45247;47.466;19.004;2023-06-14T06:02:41;99692.19;;;28.53;41.07
59443;BME280;45247;47.466;19.004;2023-06-14T06:05:10;99691.97;;;30.33;38.41
59443;BME280;45247;47.466;19.004;2023-06-14T06:07:39;99694.78;;;29.31;39.09
59443;BME280;45247;47.466;19.004;2023-06-14T06:10:07;99691.41;;;30.24;38.23
59443;BME280;45247;47.466;19.004;2023-06-14T06:12:37;99693.53;;;30.40;38.76
59443;BME280;45247;47.466;19.004;2023-06-14T06:15:05;99688.78;;;29.61;37.37
59443;BME280;45247;47.466;19.004;2023-06-14T06:17:34;99693.47;;;29.09;38.59
59443;BME280;45247;47.466;19.004;2023-06-14T06:20:21;99696.09;;;27.31;41.56
59443;BME280;45247;47.466;19.004;2023-06-14T06:23:01;99700.47;;;27.26;42.57
59443;BME280;45247;47.466;19.004;2023-06-14T06:25:29;99712.94;;;27.13;42.49
59443;BME280;45247;47.466;19.004;2023-06-14T06:27:59;99698.44;;;27.48;42.40
59443;BME280;45247;47.466;19.004;2023-06-14T06:30:29;99694.47;;;27.50;42.27
59443;BME280;45247;47.466;19.004;2023-06-14T06:32:57;99699.16;;;28.87;39.77
59443;BME280;45247;47.466;19.004;2023-06-14T06:35:25;99697.00;;;28.31;40.68
59443;BME280;45247;47.466;19.004;2023-06-14T06:37:53;99699.72;;;28.05;41.20
59443;BME280;45247;47.466;19.004;2023-06-14T06:40:22;99698.72;;;27.92;40.71
59443;BME280;45247;47.466;19.004;2023-06-14T06:42:50;99698.47;;;27.67;40.77
59443;BME280;45247;47.466;19.004;2023-06-14T06:45:19;99704.28;;;26.49;44.12
59443;BME280;45247;47.466;19.004;2023-06-14T06:47:50;99697.44;;;26.53;43.85
59443;BME280;45247;47.466;19.004;2023-06-14T06:50:18;99698.03;;;26.55;45.36
59443;BME280;45247;47.466;19.004;2023-06-14T06:52:49;99702.06;;;25.60;47.20
59443;BME280;45247;47.466;19.004;2023-06-14T06:55:17;99705.66;;;25.24;49.10
59443;BME280;45247;47.466;19.004;2023-06-14T06:57:47;99709.53;;;25.36;47.50
59443;BME280;45247;47.466;19.004;2023-06-14T07:00:16;99705.22;;;25.63;49.08
59443;BME280;45247;47.466;19.004;2023-06-14T07:02:46;99711.59;;;25.05;50.66
59443;BME280;45247;47.466;19.004;2023-06-14T07:05:14;99705.16;;;24.84;49.39
59443;BME280;45247;47.466;19.004;2023-06-14T07:07:43;99706.25;;;24.75;51.37
59443;BME280;45247;47.466;19.004;2023-06-14T07:10:11;99711.75;;;24.37;50.67
59443;BME280;45247;47.466;19.004;2023-06-14T07:12:39;99707.06;;;24.31;51.93
59443;BME280;45247;47.466;19.004;2023-06-14T07:15:07;99706.66;;;24.72;51.19
59443;BME280;45247;47.466;19.004;2023-06-14T07:17:37;99712.94;;;25.09;50.28
59443;BME280;45247;47.466;19.004;2023-06-14T07:20:07;99712.94;;;25.09;52.71
59443;BME280;45247;47.466;19.004;2023-06-14T07:22:38;99709.53;;;25.36;51.60
59443;BME280;45247;47.466;19.004;2023-06-14T07:25:08;99702.38;;;24.63;51.66
59443;BME280;45247;47.466;19.004;2023-06-14T07:27:36;99705.03;;;24.92;50.20
59443;BME280;45247;47.466;19.004;2023-06-14T07:30:04;99710.00;;;24.07;50.88
59443;BME280;45247;47.466;19.004;2023-06-14T07:32:34;99703.34;;;23.80;53.43
59443;BME280;45247;47.466;19.004;2023-06-14T07:35:02;99709.66;;;23.64;53.24
59443;BME280;45247;47.466;19.004;2023-06-14T07:37:34;99709.38;;;23.59;53.53
59443;BME280;45247;47.466;19.004;2023-06-14T07:40:03;99713.19;;;23.41;55.22
59443;BME280;45247;47.466;19.004;2023-06-14T07:42:34;99729.19;;;23.12;56.70
59443;BME280;45247;47.466;19.004;2023-06-14T07:45:03;99725.00;;;23.40;54.60
59443;BME280;45247;47.466;19.004;2023-06-14T07:47:31;99715.97;;;23.56;55.11
59443;BME280;45247;47.466;19.004;2023-06-14T07:49:59;99721.63;;;23.69;56.05
59443;BME280;45247;47.466;19.004;2023-06-14T07:52:27;99715.75;;;23.66;57.44
59443;BME280;45247;47.466;19.004;2023-06-14T07:54:57;99726.06;;;23.31;54.45
59443;BME280;45247;47.466;19.004;2023-06-14T07:57:25;99730.28;;;23.57;53.72
59443;BME280;45247;47.466;19.004;2023-06-14T07:59:53;99733.66;;;23.28;54.36
59443;BME280;45247;47.466;19.004;2023-06-14T08:02:22;99728.22;;;23.59;54.37
59443;BME280;45247;47.466;19.004;2023-06-14T08:04:50;99731.88;;;23.43;54.05
59443;BME280;45247;47.466;19.004;2023-06-14T08:07:19;99732.88;;;23.73;53.09
59443;BME280;45247;47.466;19.004;2023-06-14T08:09:47;99728.69;;;24.76;52.61
59443;BME280;45247;47.466;19.004;2023-06-14T08:12:22;99732.59;;;24.73;50.62
59443;BME280;45247;47.466;19.004;2023-06-14T08:14:50;99722.34;;;24.39;51.31
59443;BME280;45247;47.466;19.004;2023-06-14T08:17:42;99725.31;;;24.29;53.45
59443;BME280;45247;47.466;19.004;2023-06-14T08:20:11;99726.78;;;24.32;55.33
59443;BME280;45247;47.466;19.004;2023-06-14T08:22:40;99726.41;;;24.35;53.57
59443;BME280;45247;47.466;19.004;2023-06-14T08:25:10;99726.72;;;24.02;56.06
59443;BME280;45247;47.466;19.004;2023-06-14T08:27:42;99726.22;;;24.21;55.44
59443;BME280;45247;47.466;19.004;2023-06-14T08:30:13;99726.56;;;24.18;51.44
59443;BME280;45247;47.466;19.004;2023-06-14T08:32:44;99726.84;;;24.09;52.53
59443;BME280;45247;47.466;19.004;2023-06-14T08:35:21;99737.19;;;23.82;54.86
59443;BME280;45247;47.466;19.004;2023-06-14T08:38:04;99730.50;;;24.31;53.53
59443;BME280;45247;47.466;19.004;2023-06-14T08:41:02;99739.28;;;24.10;52.85
59443;BME280;45247;47.466;19.004;2023-06-14T08:43:32;99741.91;;;24.18;53.66
59443;BME280;45247;47.466;19.004;2023-06-14T08:46:02;99755.88;;;24.36;55.08
59443;BME280;45247;47.466;19.004;2023-06-14T08:48:31;99749.09;;;24.26;53.68
59443;BME280;45247;47.466;19.004;2023-06-14T08:51:00;99749.97;;;23.80;55.40
59443;BME280;45247;47.466;19.004;2023-06-14T08:53:30;99753.59;;;23.72;52.04
59443;BME280;45247;47.466;19.004;2023-06-14T08:56:06;99761.13;;;23.15;55.35
59443;BME280;45247;47.466;19.004;2023-06-14T08:58:34;99767.81;;;23.27;55.47
59443;BME280;45247;47.466;19.004;2023-06-14T09:01:03;99768.84;;;23.49;56.64
59443;BME280;45247;47.466;19.004;2023-06-14T09:03:31;99765.28;;;23.57;57.02
59443;BME280;45247;47.466;19.004;2023-06-14T09:06:00;99772.16;;;23.90;53.95
59443;BME280;45247;47.466;19.004;2023-06-14T09:08:28;99762.69;;;23.94;55.37
59443;BME280;45247;47.466;19.004;2023-06-14T09:10:57;99768.50;;;24.21;56.30
59443;BME280;45247;47.466;19.004;2023-06-14T09:13:27;99758.81;;;24.49;54.09
59443;BME280;45247;47.466;19.004;2023-06-14T09:15:57;99767.69;;;23.97;54.56
59443;BME280;45247;47.466;19.004;2023-06-14T09:18:33;99764.69;;;24.15;53.13
59443;BME280;45247;47.466;19.004;2023-06-14T09:21:01;99768.59;;;24.13;55.07
59443;BME280;45247;47.466;19.004;2023-06-14T09:23:29;99758.22;;;24.02;53.22
59443;BME280;45247;47.466;19.004;2023-06-14T09:26:08;99769.75;;;23.95;53.99
59443;BME280;45247;47.466;19.004;2023-06-14T09:28:42;99767.47;;;23.84;53.10
59443;BME280;45247;47.466;19.004;2023-06-14T09:31:11;99765.13;;;23.50;51.47
59443;BME280;45247;47.466;19.004;2023-06-14T09:33:41;99758.22;;;23.56;52.40
59443;BME280;45247;47.466;19.004;2023-06-14T09:36:09;99759.16;;;23.09;53.33
59443;BME280;45247;47.466;19.004;2023-06-14T09:38:39;99766.22;;;22.46;56.41
59443;BME280;45247;47.466;19.004;2023-06-14T09:41:07;99759.53;;;22.89;55.25
59443;BME280;45247;47.466;19.004;2023-06-14T09:43:35;99756.03;;;23.28;56.06
59443;BME280;45247;47.466;19.004;2023-06-14T09:46:06;99750.06;;;23.64;53.61
59443;BME280;45247;47.466;19.004;2023-06-14T09:48:34;99751.59;;;23.89;52.28
59443;BME280;45247;47.466;19.004;2023-06-14T09:51:02;99744.09;;;23.77;51.01
59443;BME280;45247;47.466;19.004;2023-06-14T09:53:33;99739.84;;;24.05;52.33
59443;BME280;45247;47.466;19.004;2023-06-14T09:56:03;99735.41;;;23.89;52.44
59443;BME280;45247;47.466;19.004;2023-06-14T09:58:32;99735.66;;;23.57;52.92
59443;BME280;45247;47.466;19.004;2023-06-14T10:01:05;99740.63;;;23.68;51.12
59443;BME280;45247;47.466;19.004;2023-06-14T10:03:36;99743.13;;;23.78;48.31
59443;BME280;45247;47.466;19.004;2023-06-14T10:06:26;99736.13;;;23.60;49.20
59443;BME280;45247;47.466;19.004;2023-06-14T10:08:56;99739.78;;;23.44;49.66
59443;BME280;45247;47.466;19.004;2023-06-14T10:11:26;99735.81;;;23.86;51.55
59443;BME280;45247;47.466;19.004;2023-06-14T10:13:54;99735.41;;;24.27;52.58
59443;BME280;45247;47.466;19.004;2023-06-14T10:16:25;99733.34;;;24.52;48.05
59443;BME280;45247;47.466;19.004;2023-06-14T10:18:59;99729.31;;;24.33;48.32
59443;BME280;45247;47.466;19.004;2023-06-14T10:21:32;99723.75;;;24.79;47.90
59443;BME280;45247;47.466;19.004;2023-06-14T10:24:05;99726.31;;;25.17;45.50
59443;BME280;45247;47.466;19.004;2023-06-14T10:26:34;99724.81;;;25.51;46.29
59443;BME280;45247;47.466;19.004;2023-06-14T10:29:06;99718.00;;;25.76;46.88
59443;BME280;45247;47.466;19.004;2023-06-14T10:31:42;99725.28;;;25.76;43.97
59443;BME280;45247;47.466;19.004;2023-06-14T10:34:11;99723.22;;;25.56;39.31
59443;BME280;45247;47.466;19.004;2023-06-14T10:36:40;99721.88;;;25.67;39.82
59443;BME280;45247;47.466;19.004;2023-06-14T10:39:17;99719.63;;;25.49;39.71
59443;BME280;45247;47.466;19.004;2023-06-14T10:41:56;99717.69;;;25.64;41.91
59443;BME280;45247;47.466;19.004;2023-06-14T10:44:33;99715.41;;;25.83;44.32
59443;BME280;45247;47.466;19.004;2023-06-14T10:47:05;99717.44;;;26.02;44.05
59443;BME280;45247;47.466;19.004;2023-06-14T10:49:38;99709.28;;;25.95;42.37
59443;BME280;45247;47.466;19.004;2023-06-14T10:52:09;99710.56;;;26.00;42.38
59443;BME280;45247;47.466;19.004;2023-06-14T10:57:33;99708.38;;;24.94;41.67
59443;BME280;45247;47.466;19.004;2023-06-14T11:00:05;99709.38;;;25.23;40.60
59443;BME280;45247;47.466;19.004;2023-06-14T11:05:25;99702.06;;;25.81;39.30
59443;BME280;45247;47.466;19.004;2023-06-14T11:10:41;99687.84;;;25.72;39.77
59443;BME280;45247;47.466;19.004;2023-06-14T11:13:09;99696.38;;;25.12;41.92
59443;BME280;45247;47.466;19.004;2023-06-14T11:15:37;99693.91;;;25.53;41.34
59443;BME280;45247;47.466;19.004;2023-06-14T11:18:07;99688.97;;;25.20;41.30
59443;BME280;45247;47.466;19.004;2023-06-14T11:20:37;99696.06;;;25.64;41.53
59443;BME280;45247;47.466;19.004;2023-06-14T11:23:05;99689.06;;;25.70;39.90
59443;BME280;45247;47.466;19.004;2023-06-14T11:25:33;99685.84;;;25.81;39.89
59443;BME280;45247;47.466;19.004;2023-06-14T11:28:01;99691.78;;;25.70;38.71
59443;BME280;45247;47.466;19.004;2023-06-14T11:30:29;99690.72;;;25.28;40.73
59443;BME280;45247;47.466;19.004;2023-06-14T11:32:57;99687.31;;;25.19;40.12
59443;BME280;45247;47.466;19.004;2023-06-14T11:35:25;99697.06;;;24.84;41.14
59443;BME280;45247;47.466;19.004;2023-06-14T11:37:55;99698.13;;;25.62;41.27
59443;BME280;45247;47.466;19.004;2023-06-14T11:40:23;99693.78;;;26.11;38.66
59443;BME280;45247;47.466;19.004;2023-06-14T11:42:57;99682.47;;;26.29;38.90
59443;BME280;45247;47.466;19.004;2023-06-14T11:45:26;99686.94;;;26.15;39.56
59443;BME280;45247;47.466;19.004;2023-06-14T11:47:54;99680.25;;;26.39;38.24
59443;BME280;45247;47.466;19.004;2023-06-14T11:50:22;99684.06;;;25.88;37.90
59443;BME280;45247;47.466;19.004;2023-06-14T11:52:55;99686.41;;;26.26;38.40
59443;BME280;45247;47.466;19.004;2023-06-14T11:55:23;99680.00;;;26.62;37.81
59443;BME280;45247;47.466;19.004;2023-06-14T11:57:53;99680.53;;;26.85;37.00
59443;BME280;45247;47.466;19.004;2023-06-14T12:00:24;99687.00;;;26.91;35.96
59443;BME280;45247;47.466;19.004;2023-06-14T12:02:55;99695.88;;;26.78;36.19
59443;BME280;45247;47.466;19.004;2023-06-14T12:05:24;99689.97;;;27.03;36.54
59443;BME280;45247;47.466;19.004;2023-06-14T12:07:59;99691.53;;;27.38;36.03
59443;BME280;45247;47.466;19.004;2023-06-14T12:10:27;99682.72;;;27.23;34.44
59443;BME280;45247;47.466;19.004;2023-06-14T12:12:58;99686.28;;;27.17;34.99
59443;BME280;45247;47.466;19.004;2023-06-14T12:15:27;99686.50;;;26.81;34.02
59443;BME280;45247;47.466;19.004;2023-06-14T12:17:57;99690.69;;;26.83;35.13
59443;BME280;45247;47.466;19.004;2023-06-14T12:20:28;99684.09;;;26.51;35.30
59443;BME280;45247;47.466;19.004;2023-06-14T12:23:02;99689.66;;;25.87;36.19
59443;BME280;45247;47.466;19.004;2023-06-14T12:25:51;99688.13;;;26.34;38.57
59443;BME280;45247;47.466;19.004;2023-06-14T12:28:21;99684.22;;;26.43;38.53
59443;BME280;45247;47.466;19.004;2023-06-14T12:30:49;99696.03;;;25.58;39.78
59443;BME280;45247;47.466;19.004;2023-06-14T12:33:19;99690.50;;;25.87;39.75
59443;BME280;45247;47.466;19.004;2023-06-14T12:35:47;99692.81;;;24.96;41.65
59443;BME280;45247;47.466;19.004;2023-06-14T12:38:16;99689.50;;;24.94;40.50
59443;BME280;45247;47.466;19.004;2023-06-14T12:40:44;99692.78;;;24.60;42.71
59443;BME280;45247;47.466;19.004;2023-06-14T12:43:13;99693.47;;;24.98;40.66
59443;BME280;45247;47.466;19.004;2023-06-14T12:45:44;99696.03;;;24.85;41.18
59443;BME280;45247;47.466;19.004;2023-06-14T12:48:12;99698.19;;;25.47;41.30
59443;BME280;45247;47.466;19.004;2023-06-14T12:50:40;99695.63;;;25.61;39.55
59443;BME280;45247;47.466;19.004;2023-06-14T12:53:08;99693.81;;;25.25;39.76
59443;BME280;45247;47.466;19.004;2023-06-14T12:55:37;99697.19;;;25.48;42.09
59443;BME280;45247;47.466;19.004;2023-06-14T12:58:05;99693.19;;;25.23;42.20
59443;BME280;45247;47.466;19.004;2023-06-14T13:00:35;99688.75;;;24.71;42.61
59443;BME280;45247;47.466;19.004;2023-06-14T13:03:03;99688.53;;;23.98;43.24
59443;BME280;45247;47.466;19.004;2023-06-14T13:05:31;99684.84;;;23.54;45.94
59443;BME280;45247;47.466;19.004;2023-06-14T13:08:00;99688.06;;;23.26;48.53
59443;BME280;45247;47.466;19.004;2023-06-14T13:10:28;99690.34;;;22.75;48.54
59443;BME280;45247;47.466;19.004;2023-06-14T13:12:57;99687.38;;;22.62;50.38
59443;BME280;45247;47.466;19.004;2023-06-14T13:15:26;99686.69;;;22.60;49.50